sensor_id;sensor_type;location;lat;lon;timestamp;P1;durP1;ratioP1;P2;durP2;ratioP2
72053;SDS011;59918;51.280;7.950;2022-10-18T00:00:52;11.95;;;5.28;;
72053;SDS011;59918;51.280;7.950;2022-10-18T00:03:17;12.90;;;5.47;;
72053;SDS011;59918;51.280;7.950;2022-10-18T00:05:42;10.80;;;5.28;;
72053;SDS011;59918;51.280;7.950;2022-10-18T00:08:07;6.75;;;5.38;;
72053;SDS011;59918;51.280;7.950;2022-10-18T00:10:33;10.63;;;5.93;;
72053;SDS011;59918;51.280;7.950;2022-10-18T00:12:58;6.47;;;5.25;;
72053;SDS011;59918;51.280;7.950;2022-10-18T00:15:23;6.93;;;5.43;;
72053;SDS011;59918;51.280;7.950;2022-10-18T00:17:48;8.93;;;5.55;;
72053;SDS011;59918;51.280;7.950;2022-10-18T00:20:14;13.57;;;6.15;;
72053;SDS011;59918;51.280;7.950;2022-10-18T00:22:39;9.73;;;5.85;;
72053;SDS011;59918;51.280;7.950;2022-10-18T00:25:06;11.68;;;5.40;;
72053;SDS011;59918;51.280;7.950;2022-10-18T00:27:32;9.27;;;5.03;;
72053;SDS011;59918;51.280;7.950;2022-10-18T00:29:58;9.15;;;5.78;;
72053;SDS011;59918;51.280;7.950;2022-10-18T00:32:23;11.07;;;6.00;;
72053;SDS011;59918;51.280;7.950;2022-10-18T00:34:49;13.90;;;5.80;;
72053;SDS011;59918;51.280;7.950;2022-10-18T00:37:14;14.88;;;7.10;;
72053;SDS011;59918;51.280;7.950;2022-10-18T00:39:40;12.50;;;6.25;;
72053;SDS011;59918;51.280;7.950;2022-10-18T00:42:05;20.08;;;6.13;;
72053;SDS011;59918;51.280;7.950;2022-10-18T00:46:58;18.27;;;6.37;;
72053;SDS011;59918;51.280;7.950;2022-10-18T00:49:29;13.02;;;5.53;;
72053;SDS011;59918;51.280;7.950;2022-10-18T00:51:57;16.10;;;6.25;;
72053;SDS011;59918;51.280;7.950;2022-10-18T00:54:28;12.80;;;5.50;;
72053;SDS011;59918;51.280;7.950;2022-10-18T00:56:55;18.52;;;6.30;;
72053;SDS011;59918;51.280;7.950;2022-10-18T00:59:21;22.88;;;6.25;;
72053;SDS011;59918;51.280;7.950;2022-10-18T01:01:47;18.05;;;6.30;;
72053;SDS011;59918;51.280;7.950;2022-10-18T01:04:12;17.88;;;6.75;;
72053;SDS011;59918;51.280;7.950;2022-10-18T01:12:11;15.23;;;7.18;;
72053;SDS011;59918;51.280;7.950;2022-10-18T01:20:34;20.60;;;7.50;;
72053;SDS011;59918;51.280;7.950;2022-10-18T01:31:20;17.48;;;7.28;;
72053;SDS011;59918;51.280;7.950;2022-10-18T01:33:51;20.30;;;8.50;;
72053;SDS011;59918;51.280;7.950;2022-10-18T01:36:25;18.88;;;6.50;;
72053;SDS011;59918;51.280;7.950;2022-10-18T01:38:56;11.85;;;6.82;;
72053;SDS011;59918;51.280;7.950;2022-10-18T01:41:24;13.05;;;6.88;;
72053;SDS011;59918;51.280;7.950;2022-10-18T01:43:52;23.60;;;7.53;;
72053;SDS011;59918;51.280;7.950;2022-10-18T01:46:21;24.02;;;8.73;;
72053;SDS011;59918;51.280;7.950;2022-10-18T01:48:48;30.33;;;9.32;;
72053;SDS011;59918;51.280;7.950;2022-10-18T01:51:17;29.63;;;9.25;;
72053;SDS011;59918;51.280;7.950;2022-10-18T01:53:44;37.75;;;9.18;;
72053;SDS011;59918;51.280;7.950;2022-10-18T01:56:17;21.45;;;8.10;;
72053;SDS011;59918;51.280;7.950;2022-10-18T02:02:22;21.48;;;8.88;;
72053;SDS011;59918;51.280;7.950;2022-10-18T02:07:28;36.70;;;9.98;;
72053;SDS011;59918;51.280;7.950;2022-10-18T02:10:17;53.03;;;10.57;;
72053;SDS011;59918;51.280;7.950;2022-10-18T02:12:44;41.35;;;10.43;;
72053;SDS011;59918;51.280;7.950;2022-10-18T02:15:12;40.60;;;10.80;;
72053;SDS011;59918;51.280;7.950;2022-10-18T02:17:40;52.50;;;11.55;;
72053;SDS011;59918;51.280;7.950;2022-10-18T02:20:08;60.25;;;11.70;;
72053;SDS011;59918;51.280;7.950;2022-10-18T02:22:34;61.55;;;11.27;;
72053;SDS011;59918;51.280;7.950;2022-10-18T02:25:02;48.08;;;11.30;;
72053;SDS011;59918;51.280;7.950;2022-10-18T02:29:58;130.23;;;13.00;;
72053;SDS011;59918;51.280;7.950;2022-10-18T02:32:33;77.95;;;11.95;;
72053;SDS011;59918;51.280;7.950;2022-10-18T02:37:33;79.90;;;12.02;;
72053;SDS011;59918;51.280;7.950;2022-10-18T02:40:04;86.78;;;11.98;;
72053;SDS011;59918;51.280;7.950;2022-10-18T02:42:35;72.93;;;11.20;;
72053;SDS011;59918;51.280;7.950;2022-10-18T02:45:08;63.22;;;10.68;;
72053;SDS011;59918;51.280;7.950;2022-10-18T02:47:33;94.50;;;11.38;;
72053;SDS011;59918;51.280;7.950;2022-10-18T02:49:58;80.20;;;11.93;;
72053;SDS011;59918;51.280;7.950;2022-10-18T02:52:26;94.32;;;12.07;;
72053;SDS011;59918;51.280;7.950;2022-10-18T02:54:51;86.18;;;11.95;;
72053;SDS011;59918;51.280;7.950;2022-10-18T02:57:16;127.53;;;12.15;;
72053;SDS011;59918;51.280;7.950;2022-10-18T02:59:41;63.00;;;11.23;;
72053;SDS011;59918;51.280;7.950;2022-10-18T03:02:07;57.17;;;10.50;;
72053;SDS011;59918;51.280;7.950;2022-10-18T03:04:32;37.05;;;8.95;;
72053;SDS011;59918;51.280;7.950;2022-10-18T03:06:57;33.67;;;9.15;;
72053;SDS011;59918;51.280;7.950;2022-10-18T03:09:22;36.15;;;9.32;;
72053;SDS011;59918;51.280;7.950;2022-10-18T03:11:48;36.63;;;8.85;;
72053;SDS011;59918;51.280;7.950;2022-10-18T03:14:13;23.85;;;8.88;;
72053;SDS011;59918;51.280;7.950;2022-10-18T03:16:39;21.92;;;8.20;;
72053;SDS011;59918;51.280;7.950;2022-10-18T03:19:04;19.67;;;7.97;;
72053;SDS011;59918;51.280;7.950;2022-10-18T03:21:29;23.88;;;8.60;;
72053;SDS011;59918;51.280;7.950;2022-10-18T03:23:54;21.75;;;8.10;;
72053;SDS011;59918;51.280;7.950;2022-10-18T03:26:19;28.23;;;8.65;;
72053;SDS011;59918;51.280;7.950;2022-10-18T03:28:45;25.13;;;9.20;;
72053;SDS011;59918;51.280;7.950;2022-10-18T03:31:10;25.17;;;8.98;;
72053;SDS011;59918;51.280;7.950;2022-10-18T03:33:35;25.90;;;9.38;;
72053;SDS011;59918;51.280;7.950;2022-10-18T03:36:00;22.23;;;9.20;;
72053;SDS011;59918;51.280;7.950;2022-10-18T03:38:26;19.35;;;7.72;;
72053;SDS011;59918;51.280;7.950;2022-10-18T03:40:51;9.05;;;4.95;;
72053;SDS011;59918;51.280;7.950;2022-10-18T03:43:16;7.18;;;3.90;;
72053;SDS011;59918;51.280;7.950;2022-10-18T03:45:42;6.00;;;4.00;;
72053;SDS011;59918;51.280;7.950;2022-10-18T03:48:07;10.15;;;4.97;;
72053;SDS011;59918;51.280;7.950;2022-10-18T03:50:32;14.30;;;6.25;;
72053;SDS011;59918;51.280;7.950;2022-10-18T03:52:57;9.05;;;6.07;;
72053;SDS011;59918;51.280;7.950;2022-10-18T03:55:23;10.63;;;5.97;;
72053;SDS011;59918;51.280;7.950;2022-10-18T03:57:48;17.42;;;7.32;;
72053;SDS011;59918;51.280;7.950;2022-10-18T04:00:13;8.93;;;3.83;;
72053;SDS011;59918;51.280;7.950;2022-10-18T04:02:39;7.47;;;3.92;;
72053;SDS011;59918;51.280;7.950;2022-10-18T04:05:05;5.80;;;4.13;;
72053;SDS011;59918;51.280;7.950;2022-10-18T04:07:30;9.75;;;4.30;;
72053;SDS011;59918;51.280;7.950;2022-10-18T04:09:55;4.97;;;3.65;;
72053;SDS011;59918;51.280;7.950;2022-10-18T04:12:21;9.98;;;3.60;;
72053;SDS011;59918;51.280;7.950;2022-10-18T04:14:46;9.13;;;3.08;;
72053;SDS011;59918;51.280;7.950;2022-10-18T04:17:11;7.43;;;2.90;;
72053;SDS011;59918;51.280;7.950;2022-10-18T04:19:39;5.80;;;2.65;;
72053;SDS011;59918;51.280;7.950;2022-10-18T04:22:04;4.40;;;2.60;;
72053;SDS011;59918;51.280;7.950;2022-10-18T04:24:29;7.22;;;3.10;;
72053;SDS011;59918;51.280;7.950;2022-10-18T04:26:54;4.75;;;3.10;;
72053;SDS011;59918;51.280;7.950;2022-10-18T04:29:20;4.95;;;3.05;;
72053;SDS011;59918;51.280;7.950;2022-10-18T04:31:45;6.05;;;3.42;;
72053;SDS011;59918;51.280;7.950;2022-10-18T04:34:10;7.10;;;3.88;;
72053;SDS011;59918;51.280;7.950;2022-10-18T04:36:35;7.97;;;4.22;;
72053;SDS011;59918;51.280;7.950;2022-10-18T04:39:01;7.82;;;3.65;;
72053;SDS011;59918;51.280;7.950;2022-10-18T04:41:26;7.53;;;3.58;;
72053;SDS011;59918;51.280;7.950;2022-10-18T04:43:51;5.15;;;4.38;;
72053;SDS011;59918;51.280;7.950;2022-10-18T04:46:16;12.15;;;4.57;;
72053;SDS011;59918;51.280;7.950;2022-10-18T04:48:42;16.83;;;4.63;;
72053;SDS011;59918;51.280;7.950;2022-10-18T04:51:09;11.38;;;3.95;;
72053;SDS011;59918;51.280;7.950;2022-10-18T04:53:34;10.93;;;4.25;;
72053;SDS011;59918;51.280;7.950;2022-10-18T04:56:00;7.40;;;4.00;;
72053;SDS011;59918;51.280;7.950;2022-10-18T04:58:25;12.95;;;4.00;;
72053;SDS011;59918;51.280;7.950;2022-10-18T05:00:50;9.35;;;3.75;;
72053;SDS011;59918;51.280;7.950;2022-10-18T05:03:15;12.13;;;4.43;;
72053;SDS011;59918;51.280;7.950;2022-10-18T05:05:41;9.90;;;4.18;;
72053;SDS011;59918;51.280;7.950;2022-10-18T05:08:06;8.00;;;4.60;;
72053;SDS011;59918;51.280;7.950;2022-10-18T05:10:31;6.30;;;4.30;;
72053;SDS011;59918;51.280;7.950;2022-10-18T05:12:57;9.30;;;4.72;;
72053;SDS011;59918;51.280;7.950;2022-10-18T05:15:22;13.43;;;5.10;;
72053;SDS011;59918;51.280;7.950;2022-10-18T05:17:47;9.18;;;5.07;;
72053;SDS011;59918;51.280;7.950;2022-10-18T05:20:12;8.20;;;4.90;;
72053;SDS011;59918;51.280;7.950;2022-10-18T05:22:38;10.68;;;5.22;;
72053;SDS011;59918;51.280;7.950;2022-10-18T05:25:03;9.52;;;4.55;;
72053;SDS011;59918;51.280;7.950;2022-10-18T05:27:29;7.65;;;4.93;;
72053;SDS011;59918;51.280;7.950;2022-10-18T05:29:54;13.10;;;5.38;;
72053;SDS011;59918;51.280;7.950;2022-10-18T05:32:19;11.85;;;5.85;;
72053;SDS011;59918;51.280;7.950;2022-10-18T05:34:45;8.45;;;5.20;;
72053;SDS011;59918;51.280;7.950;2022-10-18T05:37:10;6.57;;;5.40;;
72053;SDS011;59918;51.280;7.950;2022-10-18T05:39:37;10.23;;;5.82;;
72053;SDS011;59918;51.280;7.950;2022-10-18T05:42:03;11.05;;;5.40;;
72053;SDS011;59918;51.280;7.950;2022-10-18T05:44:29;11.55;;;5.75;;
72053;SDS011;59918;51.280;7.950;2022-10-18T05:46:54;13.55;;;6.13;;
72053;SDS011;59918;51.280;7.950;2022-10-18T05:49:19;20.42;;;6.18;;
72053;SDS011;59918;51.280;7.950;2022-10-18T05:51:44;14.70;;;6.32;;
72053;SDS011;59918;51.280;7.950;2022-10-18T05:54:10;15.63;;;6.13;;
72053;SDS011;59918;51.280;7.950;2022-10-18T05:56:36;17.20;;;6.65;;
72053;SDS011;59918;51.280;7.950;2022-10-18T05:59:01;13.02;;;6.22;;
72053;SDS011;59918;51.280;7.950;2022-10-18T06:01:27;12.75;;;5.72;;
72053;SDS011;59918;51.280;7.950;2022-10-18T06:03:54;11.18;;;6.10;;
72053;SDS011;59918;51.280;7.950;2022-10-18T06:06:20;12.25;;;5.88;;
72053;SDS011;59918;51.280;7.950;2022-10-18T06:08:47;13.35;;;5.38;;
72053;SDS011;59918;51.280;7.950;2022-10-18T06:11:14;12.02;;;5.82;;
72053;SDS011;59918;51.280;7.950;2022-10-18T06:13:41;15.23;;;6.63;;
72053;SDS011;59918;51.280;7.950;2022-10-18T06:16:10;10.23;;;5.60;;
72053;SDS011;59918;51.280;7.950;2022-10-18T06:18:39;9.95;;;5.53;;
72053;SDS011;59918;51.280;7.950;2022-10-18T06:21:05;10.93;;;6.10;;
72053;SDS011;59918;51.280;7.950;2022-10-18T06:23:31;12.38;;;5.78;;
72053;SDS011;59918;51.280;7.950;2022-10-18T06:25:57;10.55;;;6.00;;
72053;SDS011;59918;51.280;7.950;2022-10-18T06:28:27;12.35;;;5.97;;
72053;SDS011;59918;51.280;7.950;2022-10-18T06:30:54;12.10;;;6.07;;
72053;SDS011;59918;51.280;7.950;2022-10-18T06:33:19;10.40;;;6.28;;
72053;SDS011;59918;51.280;7.950;2022-10-18T06:35:54;15.02;;;6.80;;
72053;SDS011;59918;51.280;7.950;2022-10-18T06:38:24;13.63;;;6.75;;
72053;SDS011;59918;51.280;7.950;2022-10-18T06:40:49;16.23;;;7.18;;
72053;SDS011;59918;51.280;7.950;2022-10-18T06:43:15;14.32;;;7.03;;
72053;SDS011;59918;51.280;7.950;2022-10-18T06:45:40;16.45;;;6.80;;
72053;SDS011;59918;51.280;7.950;2022-10-18T06:48:05;11.57;;;6.43;;
72053;SDS011;59918;51.280;7.950;2022-10-18T06:50:31;10.65;;;6.72;;
72053;SDS011;59918;51.280;7.950;2022-10-18T06:52:56;14.52;;;7.22;;
72053;SDS011;59918;51.280;7.950;2022-10-18T06:55:22;18.95;;;6.70;;
72053;SDS011;59918;51.280;7.950;2022-10-18T06:57:47;19.77;;;6.85;;
72053;SDS011;59918;51.280;7.950;2022-10-18T07:00:12;13.85;;;7.70;;
72053;SDS011;59918;51.280;7.950;2022-10-18T07:02:38;17.15;;;7.63;;
72053;SDS011;59918;51.280;7.950;2022-10-18T07:05:03;15.88;;;6.30;;
72053;SDS011;59918;51.280;7.950;2022-10-18T07:07:29;13.65;;;6.05;;
72053;SDS011;59918;51.280;7.950;2022-10-18T07:09:55;16.10;;;7.55;;
72053;SDS011;59918;51.280;7.950;2022-10-18T07:12:20;15.95;;;7.00;;
72053;SDS011;59918;51.280;7.950;2022-10-18T07:14:45;12.35;;;7.13;;
72053;SDS011;59918;51.280;7.950;2022-10-18T07:17:11;18.40;;;7.70;;
72053;SDS011;59918;51.280;7.950;2022-10-18T07:19:36;11.20;;;7.80;;
72053;SDS011;59918;51.280;7.950;2022-10-18T07:22:01;15.07;;;7.13;;
72053;SDS011;59918;51.280;7.950;2022-10-18T07:24:26;14.98;;;7.55;;
72053;SDS011;59918;51.280;7.950;2022-10-18T07:26:52;17.33;;;7.07;;
72053;SDS011;59918;51.280;7.950;2022-10-18T07:29:17;15.88;;;7.47;;
72053;SDS011;59918;51.280;7.950;2022-10-18T07:31:42;16.90;;;9.10;;
72053;SDS011;59918;51.280;7.950;2022-10-18T07:34:09;20.00;;;11.27;;
72053;SDS011;59918;51.280;7.950;2022-10-18T07:36:36;32.40;;;14.75;;
72053;SDS011;59918;51.280;7.950;2022-10-18T07:39:02;25.25;;;12.20;;
72053;SDS011;59918;51.280;7.950;2022-10-18T07:41:28;26.58;;;10.38;;
72053;SDS011;59918;51.280;7.950;2022-10-18T07:43:53;21.60;;;10.68;;
72053;SDS011;59918;51.280;7.950;2022-10-18T07:46:19;21.95;;;11.30;;
72053;SDS011;59918;51.280;7.950;2022-10-18T07:48:46;19.83;;;11.75;;
72053;SDS011;59918;51.280;7.950;2022-10-18T07:51:11;19.95;;;11.00;;
72053;SDS011;59918;51.280;7.950;2022-10-18T07:53:37;19.23;;;8.90;;
72053;SDS011;59918;51.280;7.950;2022-10-18T07:56:04;19.52;;;9.63;;
72053;SDS011;59918;51.280;7.950;2022-10-18T07:58:31;17.33;;;8.30;;
72053;SDS011;59918;51.280;7.950;2022-10-18T08:00:56;17.33;;;8.93;;
72053;SDS011;59918;51.280;7.950;2022-10-18T08:03:25;34.53;;;24.77;;
72053;SDS011;59918;51.280;7.950;2022-10-18T08:05:51;23.85;;;11.13;;
72053;SDS011;59918;51.280;7.950;2022-10-18T08:08:17;21.65;;;11.68;;
72053;SDS011;59918;51.280;7.950;2022-10-18T08:10:42;28.00;;;11.05;;
72053;SDS011;59918;51.280;7.950;2022-10-18T08:13:08;20.10;;;10.23;;
72053;SDS011;59918;51.280;7.950;2022-10-18T08:15:33;20.73;;;9.65;;
72053;SDS011;59918;51.280;7.950;2022-10-18T08:17:58;21.35;;;10.00;;
72053;SDS011;59918;51.280;7.950;2022-10-18T08:20:23;19.95;;;9.75;;
72053;SDS011;59918;51.280;7.950;2022-10-18T08:22:49;19.45;;;9.85;;
72053;SDS011;59918;51.280;7.950;2022-10-18T08:25:15;19.67;;;9.98;;
72053;SDS011;59918;51.280;7.950;2022-10-18T08:27:40;17.30;;;10.25;;
72053;SDS011;59918;51.280;7.950;2022-10-18T08:30:05;18.52;;;10.05;;
72053;SDS011;59918;51.280;7.950;2022-10-18T08:32:31;27.05;;;17.02;;
72053;SDS011;59918;51.280;7.950;2022-10-18T08:34:56;26.17;;;16.38;;
72053;SDS011;59918;51.280;7.950;2022-10-18T08:37:21;28.90;;;15.68;;
72053;SDS011;59918;51.280;7.950;2022-10-18T08:39:47;25.08;;;14.35;;
72053;SDS011;59918;51.280;7.950;2022-10-18T08:45:25;27.60;;;12.50;;
72053;SDS011;59918;51.280;7.950;2022-10-18T08:47:52;24.38;;;13.35;;
72053;SDS011;59918;51.280;7.950;2022-10-18T08:50:20;18.35;;;9.95;;
72053;SDS011;59918;51.280;7.950;2022-10-18T08:58:02;18.15;;;10.30;;
72053;SDS011;59918;51.280;7.950;2022-10-18T09:00:37;18.20;;;10.60;;
72053;SDS011;59918;51.280;7.950;2022-10-18T09:03:19;23.67;;;10.65;;
72053;SDS011;59918;51.280;7.950;2022-10-18T09:33:53;22.90;;;11.68;;
72053;SDS011;59918;51.280;7.950;2022-10-18T09:36:23;21.80;;;12.50;;
72053;SDS011;59918;51.280;7.950;2022-10-18T09:38:52;22.98;;;13.27;;
72053;SDS011;59918;51.280;7.950;2022-10-18T09:41:24;20.40;;;12.57;;
72053;SDS011;59918;51.280;7.950;2022-10-18T09:46:20;22.98;;;13.38;;
72053;SDS011;59918;51.280;7.950;2022-10-18T09:48:52;24.00;;;13.77;;
72053;SDS011;59918;51.280;7.950;2022-10-18T09:51:24;25.40;;;15.15;;
72053;SDS011;59918;51.280;7.950;2022-10-18T09:56:38;24.70;;;13.02;;
72053;SDS011;59918;51.280;7.950;2022-10-18T09:59:15;22.33;;;13.02;;
72053;SDS011;59918;51.280;7.950;2022-10-18T10:01:46;27.58;;;14.38;;
72053;SDS011;59918;51.280;7.950;2022-10-18T10:04:11;28.02;;;15.63;;
72053;SDS011;59918;51.280;7.950;2022-10-18T10:06:37;29.25;;;17.27;;
72053;SDS011;59918;51.280;7.950;2022-10-18T10:09:06;29.27;;;17.10;;
72053;SDS011;59918;51.280;7.950;2022-10-18T10:11:43;37.10;;;18.25;;
72053;SDS011;59918;51.280;7.950;2022-10-18T10:17:19;42.53;;;22.40;;
72053;SDS011;59918;51.280;7.950;2022-10-18T10:19:38;73.45;;;22.73;;
72053;SDS011;59918;51.280;7.950;2022-10-18T10:22:25;48.03;;;21.63;;
72053;SDS011;59918;51.280;7.950;2022-10-18T10:24:52;48.25;;;22.23;;
72053;SDS011;59918;51.280;7.950;2022-10-18T10:27:32;46.42;;;20.73;;
72053;SDS011;59918;51.280;7.950;2022-10-18T10:30:03;49.42;;;21.95;;
72053;SDS011;59918;51.280;7.950;2022-10-18T10:32:45;52.03;;;20.67;;
72053;SDS011;59918;51.280;7.950;2022-10-18T10:37:59;36.97;;;18.08;;
72053;SDS011;59918;51.280;7.950;2022-10-18T10:42:56;35.40;;;17.50;;
72053;SDS011;59918;51.280;7.950;2022-10-18T10:45:22;58.00;;;28.85;;
72053;SDS011;59918;51.280;7.950;2022-10-18T10:47:50;35.50;;;16.60;;
72053;SDS011;59918;51.280;7.950;2022-10-18T10:50:26;36.90;;;16.55;;
72053;SDS011;59918;51.280;7.950;2022-10-18T10:52:53;32.95;;;16.92;;
72053;SDS011;59918;51.280;7.950;2022-10-18T10:55:20;33.15;;;16.70;;
72053;SDS011;59918;51.280;7.950;2022-10-18T10:57:48;31.23;;;15.73;;
72053;SDS011;59918;51.280;7.950;2022-10-18T11:00:35;29.45;;;16.00;;
72053;SDS011;59918;51.280;7.950;2022-10-18T11:03:10;33.78;;;16.38;;
72053;SDS011;59918;51.280;7.950;2022-10-18T11:08:15;37.20;;;16.92;;
72053;SDS011;59918;51.280;7.950;2022-10-18T11:16:12;26.70;;;15.35;;
72053;SDS011;59918;51.280;7.950;2022-10-18T11:18:58;23.83;;;14.07;;
72053;SDS011;59918;51.280;7.950;2022-10-18T11:21:33;29.75;;;14.02;;
72053;SDS011;59918;51.280;7.950;2022-10-18T11:24:00;24.88;;;16.00;;
72053;SDS011;59918;51.280;7.950;2022-10-18T11:42:57;24.20;;;13.60;;
72053;SDS011;59918;51.280;7.950;2022-10-18T11:50:56;19.20;;;12.23;;
72053;SDS011;59918;51.280;7.950;2022-10-18T11:53:54;18.95;;;12.35;;
72053;SDS011;59918;51.280;7.950;2022-10-18T12:04:40;20.98;;;12.73;;
72053;SDS011;59918;51.280;7.950;2022-10-18T12:07:11;19.42;;;13.38;;
72053;SDS011;59918;51.280;7.950;2022-10-18T12:09:40;22.33;;;13.45;;
72053;SDS011;59918;51.280;7.950;2022-10-18T12:12:11;21.13;;;13.60;;
72053;SDS011;59918;51.280;7.950;2022-10-18T12:14:56;26.05;;;14.27;;
72053;SDS011;59918;51.280;7.950;2022-10-18T12:17:39;23.85;;;14.40;;
72053;SDS011;59918;51.280;7.950;2022-10-18T12:20:10;20.42;;;12.00;;
72053;SDS011;59918;51.280;7.950;2022-10-18T12:22:42;22.77;;;14.18;;
72053;SDS011;59918;51.280;7.950;2022-10-18T12:25:14;21.75;;;13.40;;
72053;SDS011;59918;51.280;7.950;2022-10-18T12:27:43;22.17;;;13.57;;
72053;SDS011;59918;51.280;7.950;2022-10-18T12:30:23;25.50;;;12.90;;
72053;SDS011;59918;51.280;7.950;2022-10-18T12:33:01;23.30;;;13.82;;
72053;SDS011;59918;51.280;7.950;2022-10-18T12:35:34;21.17;;;14.02;;
72053;SDS011;59918;51.280;7.950;2022-10-18T12:40:44;20.20;;;13.35;;
72053;SDS011;59918;51.280;7.950;2022-10-18T12:43:17;36.63;;;22.85;;
72053;SDS011;59918;51.280;7.950;2022-10-18T12:45:54;43.53;;;26.33;;
72053;SDS011;59918;51.280;7.950;2022-10-18T12:53:28;45.85;;;26.13;;
72053;SDS011;59918;51.280;7.950;2022-10-18T12:55:54;48.65;;;26.73;;
72053;SDS011;59918;51.280;7.950;2022-10-18T13:16:10;39.83;;;25.67;;
72053;SDS011;59918;51.280;7.950;2022-10-18T13:21:44;34.67;;;22.88;;
72053;SDS011;59918;51.280;7.950;2022-10-18T13:27:00;34.33;;;22.55;;
72053;SDS011;59918;51.280;7.950;2022-10-18T13:29:47;31.08;;;22.38;;
72053;SDS011;59918;51.280;7.950;2022-10-18T13:32:25;33.25;;;21.70;;
72053;SDS011;59918;51.280;7.950;2022-10-18T13:34:58;30.60;;;20.23;;
72053;SDS011;59918;51.280;7.950;2022-10-18T13:37:23;33.70;;;22.27;;
72053;SDS011;59918;51.280;7.950;2022-10-18T13:39:50;27.67;;;20.67;;
72053;SDS011;59918;51.280;7.950;2022-10-18T13:42:36;25.83;;;18.10;;
72053;SDS011;59918;51.280;7.950;2022-10-18T13:50:53;24.02;;;18.38;;
72053;SDS011;59918;51.280;7.950;2022-10-18T13:53:44;29.30;;;19.60;;
72053;SDS011;59918;51.280;7.950;2022-10-18T13:56:32;25.35;;;19.38;;
72053;SDS011;59918;51.280;7.950;2022-10-18T13:59:17;29.65;;;18.77;;
72053;SDS011;59918;51.280;7.950;2022-10-18T14:07:18;26.40;;;19.10;;
72053;SDS011;59918;51.280;7.950;2022-10-18T14:09:45;27.33;;;19.65;;
72053;SDS011;59918;51.280;7.950;2022-10-18T14:12:32;27.35;;;18.80;;
72053;SDS011;59918;51.280;7.950;2022-10-18T14:15:04;28.85;;;18.17;;
72053;SDS011;59918;51.280;7.950;2022-10-18T14:23:11;25.52;;;18.50;;
72053;SDS011;59918;51.280;7.950;2022-10-18T14:25:40;23.27;;;17.42;;
72053;SDS011;59918;51.280;7.950;2022-10-18T14:28:11;22.30;;;15.95;;
72053;SDS011;59918;51.280;7.950;2022-10-18T14:30:36;18.52;;;15.55;;
72053;SDS011;59918;51.280;7.950;2022-10-18T14:33:22;21.88;;;16.67;;
72053;SDS011;59918;51.280;7.950;2022-10-18T14:35:57;20.98;;;15.82;;
72053;SDS011;59918;51.280;7.950;2022-10-18T14:38:26;18.67;;;15.65;;
72053;SDS011;59918;51.280;7.950;2022-10-18T14:41:02;23.65;;;15.57;;
72053;SDS011;59918;51.280;7.950;2022-10-18T14:43:36;20.00;;;16.13;;
72053;SDS011;59918;51.280;7.950;2022-10-18T14:46:23;17.90;;;14.98;;
72053;SDS011;59918;51.280;7.950;2022-10-18T14:51:16;23.88;;;16.00;;
72053;SDS011;59918;51.280;7.950;2022-10-18T14:53:42;20.75;;;16.33;;
72053;SDS011;59918;51.280;7.950;2022-10-18T14:56:16;22.88;;;15.40;;
72053;SDS011;59918;51.280;7.950;2022-10-18T14:58:46;19.42;;;15.05;;
72053;SDS011;59918;51.280;7.950;2022-10-18T15:01:14;15.40;;;13.75;;
72053;SDS011;59918;51.280;7.950;2022-10-18T15:03:41;17.25;;;13.95;;
72053;SDS011;59918;51.280;7.950;2022-10-18T15:06:07;17.45;;;14.45;;
72053;SDS011;59918;51.280;7.950;2022-10-18T15:08:35;22.65;;;14.05;;
72053;SDS011;59918;51.280;7.950;2022-10-18T15:11:04;18.75;;;15.00;;
72053;SDS011;59918;51.280;7.950;2022-10-18T15:13:30;22.60;;;15.98;;
72053;SDS011;59918;51.280;7.950;2022-10-18T15:15:58;16.50;;;14.43;;
72053;SDS011;59918;51.280;7.950;2022-10-18T15:18:24;17.92;;;15.35;;
72053;SDS011;59918;51.280;7.950;2022-10-18T15:23:52;17.60;;;14.20;;
72053;SDS011;59918;51.280;7.950;2022-10-18T15:26:22;14.82;;;11.70;;
72053;SDS011;59918;51.280;7.950;2022-10-18T15:28:50;19.70;;;13.05;;
72053;SDS011;59918;51.280;7.950;2022-10-18T15:31:27;20.27;;;13.20;;
72053;SDS011;59918;51.280;7.950;2022-10-18T15:34:06;18.23;;;13.48;;
72053;SDS011;59918;51.280;7.950;2022-10-18T15:36:34;17.90;;;14.23;;
72053;SDS011;59918;51.280;7.950;2022-10-18T15:39:06;20.05;;;15.85;;
72053;SDS011;59918;51.280;7.950;2022-10-18T15:41:48;18.17;;;16.17;;
72053;SDS011;59918;51.280;7.950;2022-10-18T15:44:24;18.17;;;15.13;;
72053;SDS011;59918;51.280;7.950;2022-10-18T15:46:51;25.10;;;15.68;;
72053;SDS011;59918;51.280;7.950;2022-10-18T15:49:46;23.85;;;16.17;;
72053;SDS011;59918;51.280;7.950;2022-10-18T15:54:57;27.73;;;17.10;;
72053;SDS011;59918;51.280;7.950;2022-10-18T15:57:23;30.02;;;17.83;;
72053;SDS011;59918;51.280;7.950;2022-10-18T15:59:50;22.08;;;16.33;;
72053;SDS011;59918;51.280;7.950;2022-10-18T16:02:17;21.55;;;15.43;;
72053;SDS011;59918;51.280;7.950;2022-10-18T16:04:43;27.10;;;16.90;;
72053;SDS011;59918;51.280;7.950;2022-10-18T16:07:09;24.70;;;18.13;;
72053;SDS011;59918;51.280;7.950;2022-10-18T16:09:35;26.70;;;17.52;;
72053;SDS011;59918;51.280;7.950;2022-10-18T16:12:00;26.92;;;17.30;;
72053;SDS011;59918;51.280;7.950;2022-10-18T16:14:25;23.75;;;16.55;;
72053;SDS011;59918;51.280;7.950;2022-10-18T16:16:57;26.95;;;18.77;;
72053;SDS011;59918;51.280;7.950;2022-10-18T16:19:23;31.65;;;20.42;;
72053;SDS011;59918;51.280;7.950;2022-10-18T16:21:49;30.30;;;19.40;;
72053;SDS011;59918;51.280;7.950;2022-10-18T16:24:16;27.23;;;18.67;;
72053;SDS011;59918;51.280;7.950;2022-10-18T16:26:44;33.95;;;19.48;;
72053;SDS011;59918;51.280;7.950;2022-10-18T16:29:11;29.25;;;18.67;;
72053;SDS011;59918;51.280;7.950;2022-10-18T16:31:38;29.30;;;17.77;;
72053;SDS011;59918;51.280;7.950;2022-10-18T16:34:03;33.75;;;18.90;;
72053;SDS011;59918;51.280;7.950;2022-10-18T16:36:29;32.30;;;19.88;;
72053;SDS011;59918;51.280;7.950;2022-10-18T16:38:56;33.65;;;19.63;;
72053;SDS011;59918;51.280;7.950;2022-10-18T16:41:22;31.17;;;18.00;;
72053;SDS011;59918;51.280;7.950;2022-10-18T16:43:48;29.50;;;16.85;;
72053;SDS011;59918;51.280;7.950;2022-10-18T16:46:16;31.70;;;18.95;;
72053;SDS011;59918;51.280;7.950;2022-10-18T16:48:44;32.33;;;18.45;;
72053;SDS011;59918;51.280;7.950;2022-10-18T16:51:11;29.88;;;17.80;;
72053;SDS011;59918;51.280;7.950;2022-10-18T16:53:36;30.48;;;17.52;;
72053;SDS011;59918;51.280;7.950;2022-10-18T16:56:02;34.90;;;18.15;;
72053;SDS011;59918;51.280;7.950;2022-10-18T16:58:29;30.00;;;17.30;;
72053;SDS011;59918;51.280;7.950;2022-10-18T17:00:55;33.72;;;17.35;;
72053;SDS011;59918;51.280;7.950;2022-10-18T17:03:21;29.52;;;16.98;;
72053;SDS011;59918;51.280;7.950;2022-10-18T17:05:47;35.40;;;18.60;;
72053;SDS011;59918;51.280;7.950;2022-10-18T17:08:21;30.20;;;16.85;;
72053;SDS011;59918;51.280;7.950;2022-10-18T17:10:49;32.60;;;16.63;;
72053;SDS011;59918;51.280;7.950;2022-10-18T17:13:15;30.25;;;18.38;;
72053;SDS011;59918;51.280;7.950;2022-10-18T17:15:40;32.13;;;16.75;;
72053;SDS011;59918;51.280;7.950;2022-10-18T17:18:08;35.40;;;19.75;;
72053;SDS011;59918;51.280;7.950;2022-10-18T17:20:35;37.70;;;19.05;;
72053;SDS011;59918;51.280;7.950;2022-10-18T17:23:00;33.78;;;19.58;;
72053;SDS011;59918;51.280;7.950;2022-10-18T17:25:25;31.48;;;18.55;;
72053;SDS011;59918;51.280;7.950;2022-10-18T17:27:51;46.25;;;21.55;;
72053;SDS011;59918;51.280;7.950;2022-10-18T17:30:16;39.08;;;21.15;;
72053;SDS011;59918;51.280;7.950;2022-10-18T17:32:41;31.08;;;17.38;;